sensor_id;sensor_type;location;lat;lon;timestamp;temperature;humidity
5560;DHT22;2803;47.916;8.074;2024-02-16T00:01:40;12.20;99.90
5560;DHT22;2803;47.916;8.074;2024-02-16T00:04:06;12.30;99.90
5560;DHT22;2803;47.916;8.074;2024-02-16T00:06:33;12.10;99.90
5560;DHT22;2803;47.916;8.074;2024-02-16T00:09:01;11.50;99.90
5560;DHT22;2803;47.916;8.074;2024-02-16T00:11:28;11.60;99.90
5560;DHT22;2803;47.916;8.074;2024-02-16T00:13:55;11.80;99.90
5560;DHT22;2803;47.916;8.074;2024-02-16T00:16:22;12.20;99.90
5560;DHT22;2803;47.916;8.074;2024-02-16T00:18:48;11.90;99.90
5560;DHT22;2803;47.916;8.074;2024-02-16T00:21:15;11.80;99.90
5560;DHT22;2803;47.916;8.074;2024-02-16T00:23:42;12.10;99.90
5560;DHT22;2803;47.916;8.074;2024-02-16T00:26:11;12.30;99.90
5560;DHT22;2803;47.916;8.074;2024-02-16T00:28:37;12.50;99.90
5560;DHT22;2803;47.916;8.074;2024-02-16T00:31:04;12.50;99.90
5560;DHT22;2803;47.916;8.074;2024-02-16T00:33:31;12.50;99.90
5560;DHT22;2803;47.916;8.074;2024-02-16T00:35:58;12.40;99.90
5560;DHT22;2803;47.916;8.074;2024-02-16T00:38:25;12.50;99.90
5560;DHT22;2803;47.916;8.074;2024-02-16T00:40:51;12.50;99.90
5560;DHT22;2803;47.916;8.074;2024-02-16T00:43:19;12.60;99.90
5560;DHT22;2803;47.916;8.074;2024-02-16T00:45:46;12.10;99.90
5560;DHT22;2803;47.916;8.074;2024-02-16T00:48:13;12.20;99.90
5560;DHT22;2803;47.916;8.074;2024-02-16T00:50:40;12.30;99.90
5560;DHT22;2803;47.916;8.074;2024-02-16T00:53:08;12.30;99.90
5560;DHT22;2803;47.916;8.074;2024-02-16T00:55:34;12.50;99.90
5560;DHT22;2803;47.916;8.074;2024-02-16T00:58:02;12.60;99.90
5560;DHT22;2803;47.916;8.074;2024-02-16T01:00:30;12.50;99.90
5560;DHT22;2803;47.916;8.074;2024-02-16T01:02:57;12.50;99.90
5560;DHT22;2803;47.916;8.074;2024-02-16T01:05:23;12.60;99.90
5560;DHT22;2803;47.916;8.074;2024-02-16T01:07:50;12.60;99.90
5560;DHT22;2803;47.916;8.074;2024-02-16T01:10:17;12.60;99.90
5560;DHT22;2803;47.916;8.074;2024-02-16T01:12:43;12.60;99.90
5560;DHT22;2803;47.916;8.074;2024-02-16T01:15:10;12.50;99.90
5560;DHT22;2803;47.916;8.074;2024-02-16T01:17:38;12.30;99.90
5560;DHT22;2803;47.916;8.074;2024-02-16T01:20:06;12.20;99.90
5560;DHT22;2803;47.916;8.074;2024-02-16T01:22:35;12.30;99.90
5560;DHT22;2803;47.916;8.074;2024-02-16T01:25:02;12.30;99.90
5560;DHT22;2803;47.916;8.074;2024-02-16T01:27:29;12.50;99.90
5560;DHT22;2803;47.916;8.074;2024-02-16T01:29:55;12.40;99.90
5560;DHT22;2803;47.916;8.074;2024-02-16T01:32:22;12.40;99.90
5560;DHT22;2803;47.916;8.074;2024-02-16T01:34:50;12.30;99.90
5560;DHT22;2803;47.916;8.074;2024-02-16T01:37:17;12.00;99.90
5560;DHT22;2803;47.916;8.074;2024-02-16T01:39:43;11.80;99.90
5560;DHT22;2803;47.916;8.074;2024-02-16T01:42:11;11.70;99.90
5560;DHT22;2803;47.916;8.074;2024-02-16T01:44:37;11.60;99.90
5560;DHT22;2803;47.916;8.074;2024-02-16T01:47:04;11.80;99.90
5560;DHT22;2803;47.916;8.074;2024-02-16T01:49:31;11.80;99.90
5560;DHT22;2803;47.916;8.074;2024-02-16T01:51:59;12.10;99.90
5560;DHT22;2803;47.916;8.074;2024-02-16T01:54:26;12.10;99.90
5560;DHT22;2803;47.916;8.074;2024-02-16T01:56:53;12.30;99.90
5560;DHT22;2803;47.916;8.074;2024-02-16T01:59:20;12.40;99.90
5560;DHT22;2803;47.916;8.074;2024-02-16T02:01:47;12.30;99.90
5560;DHT22;2803;47.916;8.074;2024-02-16T02:04:13;12.30;99.90
5560;DHT22;2803;47.916;8.074;2024-02-16T02:06:41;12.30;99.90
5560;DHT22;2803;47.916;8.074;2024-02-16T02:09:09;12.20;99.90
5560;DHT22;2803;47.916;8.074;2024-02-16T02:11:35;12.20;99.90
5560;DHT22;2803;47.916;8.074;2024-02-16T02:14:03;12.20;99.90
5560;DHT22;2803;47.916;8.074;2024-02-16T02:16:29;11.80;99.90
5560;DHT22;2803;47.916;8.074;2024-02-16T02:18:56;11.40;99.90
5560;DHT22;2803;47.916;8.074;2024-02-16T02:21:22;11.50;99.90
5560;DHT22;2803;47.916;8.074;2024-02-16T02:23:50;11.80;99.90
5560;DHT22;2803;47.916;8.074;2024-02-16T02:26:17;11.90;99.90
5560;DHT22;2803;47.916;8.074;2024-02-16T02:28:43;12.00;99.90
5560;DHT22;2803;47.916;8.074;2024-02-16T02:31:11;12.20;99.90
5560;DHT22;2803;47.916;8.074;2024-02-16T02:33:37;12.20;99.90
5560;DHT22;2803;47.916;8.074;2024-02-16T02:36:05;12.20;99.90
5560;DHT22;2803;47.916;8.074;2024-02-16T02:38:32;11.60;99.90
5560;DHT22;2803;47.916;8.074;2024-02-16T02:41:00;12.00;99.90
5560;DHT22;2803;47.916;8.074;2024-02-16T02:43:27;12.20;99.90
5560;DHT22;2803;47.916;8.074;2024-02-16T02:45:54;12.20;99.90
5560;DHT22;2803;47.916;8.074;2024-02-16T02:48:20;12.20;99.90
5560;DHT22;2803;47.916;8.074;2024-02-16T02:50:47;12.00;99.90
5560;DHT22;2803;47.916;8.074;2024-02-16T02:53:14;11.70;99.90
5560;DHT22;2803;47.916;8.074;2024-02-16T02:55:41;11.80;99.90
5560;DHT22;2803;47.916;8.074;2024-02-16T02:58:08;11.90;99.90
5560;DHT22;2803;47.916;8.074;2024-02-16T03:00:35;12.00;99.90
5560;DHT22;2803;47.916;8.074;2024-02-16T03:03:02;11.90;99.90
5560;DHT22;2803;47.916;8.074;2024-02-16T03:05:29;11.20;99.90
5560;DHT22;2803;47.916;8.074;2024-02-16T03:07:55;11.10;99.90
5560;DHT22;2803;47.916;8.074;2024-02-16T03:10:26;11.50;99.90
5560;DHT22;2803;47.916;8.074;2024-02-16T03:12:52;11.70;99.90
5560;DHT22;2803;47.916;8.074;2024-02-16T03:15:21;11.70;99.90
5560;DHT22;2803;47.916;8.074;2024-02-16T03:17:48;11.70;99.90
5560;DHT22;2803;47.916;8.074;2024-02-16T03:20:15;11.90;99.90
5560;DHT22;2803;47.916;8.074;2024-02-16T03:22:42;12.00;99.90
5560;DHT22;2803;47.916;8.074;2024-02-16T03:25:09;12.00;99.90
5560;DHT22;2803;47.916;8.074;2024-02-16T03:27:35;12.10;99.90
5560;DHT22;2803;47.916;8.074;2024-02-16T03:30:03;12.20;99.90
5560;DHT22;2803;47.916;8.074;2024-02-16T03:32:31;12.20;99.90
5560;DHT22;2803;47.916;8.074;2024-02-16T03:34:58;12.30;99.90
5560;DHT22;2803;47.916;8.074;2024-02-16T03:37:24;12.40;99.90
5560;DHT22;2803;47.916;8.074;2024-02-16T03:39:51;12.40;99.90
5560;DHT22;2803;47.916;8.074;2024-02-16T03:42:17;12.40;99.90
5560;DHT22;2803;47.916;8.074;2024-02-16T03:44:44;12.50;99.90
5560;DHT22;2803;47.916;8.074;2024-02-16T03:47:11;12.30;99.90
5560;DHT22;2803;47.916;8.074;2024-02-16T03:49:39;12.40;99.90
5560;DHT22;2803;47.916;8.074;2024-02-16T03:52:06;12.20;99.90
5560;DHT22;2803;47.916;8.074;2024-02-16T03:54:33;12.00;99.90
5560;DHT22;2803;47.916;8.074;2024-02-16T03:56:59;12.20;99.90
5560;DHT22;2803;47.916;8.074;2024-02-16T03:59:26;12.30;99.90
5560;DHT22;2803;47.916;8.074;2024-02-16T04:01:52;12.20;99.90
5560;DHT22;2803;47.916;8.074;2024-02-16T04:04:19;12.20;99.90
5560;DHT22;2803;47.916;8.074;2024-02-16T04:06:47;12.10;99.90
5560;DHT22;2803;47.916;8.074;2024-02-16T04:09:14;12.30;99.90
5560;DHT22;2803;47.916;8.074;2024-02-16T04:11:41;12.20;99.90
5560;DHT22;2803;47.916;8.074;2024-02-16T04:14:07;12.20;99.90
5560;DHT22;2803;47.916;8.074;2024-02-16T04:16:34;11.80;99.90
5560;DHT22;2803;47.916;8.074;2024-02-16T04:19:01;12.10;99.90
5560;DHT22;2803;47.916;8.074;2024-02-16T04:21:27;12.30;99.90
5560;DHT22;2803;47.916;8.074;2024-02-16T04:23:55;12.10;99.90
5560;DHT22;2803;47.916;8.074;2024-02-16T04:26:22;12.30;99.90
5560;DHT22;2803;47.916;8.074;2024-02-16T04:28:48;12.40;99.90
5560;DHT22;2803;47.916;8.074;2024-02-16T04:31:15;12.30;99.90
5560;DHT22;2803;47.916;8.074;2024-02-16T04:33:42;12.40;99.90
5560;DHT22;2803;47.916;8.074;2024-02-16T04:36:09;12.40;99.90
5560;DHT22;2803;47.916;8.074;2024-02-16T04:38:35;12.20;99.90
5560;DHT22;2803;47.916;8.074;2024-02-16T04:41:04;12.30;99.90
5560;DHT22;2803;47.916;8.074;2024-02-16T04:43:31;12.30;99.90
5560;DHT22;2803;47.916;8.074;2024-02-16T04:45:58;12.30;99.90
5560;DHT22;2803;47.916;8.074;2024-02-16T04:48:25;12.40;99.90
5560;DHT22;2803;47.916;8.074;2024-02-16T04:50:51;12.40;99.90
5560;DHT22;2803;47.916;8.074;2024-02-16T04:53:18;12.40;99.90
5560;DHT22;2803;47.916;8.074;2024-02-16T04:55:44;12.30;99.90
5560;DHT22;2803;47.916;8.074;2024-02-16T04:58:12;12.30;99.90
5560;DHT22;2803;47.916;8.074;2024-02-16T05:00:39;12.50;99.90
5560;DHT22;2803;47.916;8.074;2024-02-16T05:03:06;12.40;99.90
5560;DHT22;2803;47.916;8.074;2024-02-16T05:05:33;12.40;99.90
5560;DHT22;2803;47.916;8.074;2024-02-16T05:08:00;12.00;99.90
5560;DHT22;2803;47.916;8.074;2024-02-16T05:10:27;12.00;99.90
5560;DHT22;2803;47.916;8.074;2024-02-16T05:12:53;12.20;99.90
5560;DHT22;2803;47.916;8.074;2024-02-16T05:15:22;11.90;99.90
5560;DHT22;2803;47.916;8.074;2024-02-16T05:17:48;12.10;99.90
5560;DHT22;2803;47.916;8.074;2024-02-16T05:20:16;12.40;99.90
5560;DHT22;2803;47.916;8.074;2024-02-16T05:22:45;12.50;99.90
5560;DHT22;2803;47.916;8.074;2024-02-16T05:25:12;12.60;99.90
5560;DHT22;2803;47.916;8.074;2024-02-16T05:27:39;12.60;99.90
5560;DHT22;2803;47.916;8.074;2024-02-16T05:30:08;12.50;99.90
5560;DHT22;2803;47.916;8.074;2024-02-16T05:32:37;12.50;99.90
5560;DHT22;2803;47.916;8.074;2024-02-16T05:35:04;12.40;99.90
5560;DHT22;2803;47.916;8.074;2024-02-16T05:37:37;12.40;99.90
5560;DHT22;2803;47.916;8.074;2024-02-16T05:40:07;12.30;99.90
5560;DHT22;2803;47.916;8.074;2024-02-16T05:42:45;12.20;99.90
5560;DHT22;2803;47.916;8.074;2024-02-16T05:45:12;12.20;99.90
5560;DHT22;2803;47.916;8.074;2024-02-16T05:47:40;11.90;99.90
5560;DHT22;2803;47.916;8.074;2024-02-16T05:50:07;12.10;99.90
5560;DHT22;2803;47.916;8.074;2024-02-16T05:52:33;12.30;99.90
5560;DHT22;2803;47.916;8.074;2024-02-16T05:55:00;12.20;99.90
5560;DHT22;2803;47.916;8.074;2024-02-16T05:57:27;12.30;99.90
5560;DHT22;2803;47.916;8.074;2024-02-16T05:59:53;12.10;99.90
5560;DHT22;2803;47.916;8.074;2024-02-16T06:02:20;12.30;99.90
5560;DHT22;2803;47.916;8.074;2024-02-16T06:04:52;12.20;99.90
5560;DHT22;2803;47.916;8.074;2024-02-16T06:07:19;12.30;99.90
5560;DHT22;2803;47.916;8.074;2024-02-16T06:09:45;12.30;99.90
5560;DHT22;2803;47.916;8.074;2024-02-16T06:12:12;12.40;99.90
5560;DHT22;2803;47.916;8.074;2024-02-16T06:14:41;12.30;99.90
5560;DHT22;2803;47.916;8.074;2024-02-16T06:17:08;12.40;99.90
5560;DHT22;2803;47.916;8.074;2024-02-16T06:19:34;12.40;99.90
5560;DHT22;2803;47.916;8.074;2024-02-16T06:22:02;12.30;99.90
5560;DHT22;2803;47.916;8.074;2024-02-16T06:24:29;12.20;99.90
5560;DHT22;2803;47.916;8.074;2024-02-16T06:26:55;12.20;99.90
5560;DHT22;2803;47.916;8.074;2024-02-16T06:29:22;12.10;99.90
5560;DHT22;2803;47.916;8.074;2024-02-16T06:31:49;12.10;99.90
5560;DHT22;2803;47.916;8.074;2024-02-16T06:34:15;12.20;99.90
5560;DHT22;2803;47.916;8.074;2024-02-16T06:36:42;12.10;99.90
5560;DHT22;2803;47.916;8.074;2024-02-16T06:39:11;12.30;99.90
5560;DHT22;2803;47.916;8.074;2024-02-16T06:41:41;12.30;99.90
5560;DHT22;2803;47.916;8.074;2024-02-16T06:44:09;12.30;99.90
5560;DHT22;2803;47.916;8.074;2024-02-16T06:46:36;12.30;99.90
5560;DHT22;2803;47.916;8.074;2024-02-16T06:49:02;12.00;99.90
5560;DHT22;2803;47.916;8.074;2024-02-16T06:51:29;12.00;99.90
5560;DHT22;2803;47.916;8.074;2024-02-16T06:53:56;12.20;99.90
5560;DHT22;2803;47.916;8.074;2024-02-16T06:56:24;12.30;99.90
5560;DHT22;2803;47.916;8.074;2024-02-16T06:58:50;12.50;99.90
5560;DHT22;2803;47.916;8.074;2024-02-16T07:01:17;12.30;99.90
5560;DHT22;2803;47.916;8.074;2024-02-16T07:03:44;12.30;99.90
5560;DHT22;2803;47.916;8.074;2024-02-16T07:06:11;12.30;99.90
5560;DHT22;2803;47.916;8.074;2024-02-16T07:08:39;12.30;99.90
5560;DHT22;2803;47.916;8.074;2024-02-16T07:11:05;12.20;99.90
5560;DHT22;2803;47.916;8.074;2024-02-16T07:13:33;12.20;99.90
5560;DHT22;2803;47.916;8.074;2024-02-16T07:15:59;12.30;99.90
5560;DHT22;2803;47.916;8.074;2024-02-16T07:18:29;12.40;99.90
5560;DHT22;2803;47.916;8.074;2024-02-16T07:20:56;12.20;99.90
5560;DHT22;2803;47.916;8.074;2024-02-16T07:23:24;12.50;99.90
5560;DHT22;2803;47.916;8.074;2024-02-16T07:25:51;12.50;99.90
5560;DHT22;2803;47.916;8.074;2024-02-16T07:28:20;12.50;99.90
5560;DHT22;2803;47.916;8.074;2024-02-16T07:30:48;12.50;99.90
5560;DHT22;2803;47.916;8.074;2024-02-16T07:33:15;12.30;99.90
5560;DHT22;2803;47.916;8.074;2024-02-16T07:35:42;12.10;99.90
5560;DHT22;2803;47.916;8.074;2024-02-16T07:38:09;12.30;99.90
5560;DHT22;2803;47.916;8.074;2024-02-16T07:40:36;12.30;99.90
5560;DHT22;2803;47.916;8.074;2024-02-16T07:43:03;12.60;99.90
5560;DHT22;2803;47.916;8.074;2024-02-16T07:45:30;12.50;99.90
5560;DHT22;2803;47.916;8.074;2024-02-16T07:47:58;12.40;99.90
5560;DHT22;2803;47.916;8.074;2024-02-16T07:50:24;12.30;99.90
5560;DHT22;2803;47.916;8.074;2024-02-16T07:52:51;12.70;99.90
5560;DHT22;2803;47.916;8.074;2024-02-16T07:55:18;12.80;99.90
5560;DHT22;2803;47.916;8.074;2024-02-16T07:57:45;12.90;99.90
5560;DHT22;2803;47.916;8.074;2024-02-16T08:00:12;13.10;99.90
5560;DHT22;2803;47.916;8.074;2024-02-16T08:02:41;13.20;99.90
5560;DHT22;2803;47.916;8.074;2024-02-16T08:05:10;13.30;99.90
5560;DHT22;2803;47.916;8.074;2024-02-16T08:07:38;13.00;99.90
5560;DHT22;2803;47.916;8.074;2024-02-16T08:10:05;13.00;99.90
5560;DHT22;2803;47.916;8.074;2024-02-16T08:12:31;13.10;99.90
5560;DHT22;2803;47.916;8.074;2024-02-16T08:15:00;13.10;99.90
5560;DHT22;2803;47.916;8.074;2024-02-16T08:17:27;13.20;99.90
5560;DHT22;2803;47.916;8.074;2024-02-16T08:19:54;13.40;99.90
5560;DHT22;2803;47.916;8.074;2024-02-16T08:22:22;13.60;99.90
5560;DHT22;2803;47.916;8.074;2024-02-16T08:24:49;13.80;99.90
5560;DHT22;2803;47.916;8.074;2024-02-16T08:27:16;13.90;99.90
5560;DHT22;2803;47.916;8.074;2024-02-16T08:29:42;14.00;99.90
5560;DHT22;2803;47.916;8.074;2024-02-16T08:32:10;13.90;99.90
5560;DHT22;2803;47.916;8.074;2024-02-16T08:34:41;14.00;99.90
5560;DHT22;2803;47.916;8.074;2024-02-16T08:37:08;13.80;99.90
5560;DHT22;2803;47.916;8.074;2024-02-16T08:39:38;14.00;99.90
5560;DHT22;2803;47.916;8.074;2024-02-16T08:42:05;14.20;99.90
5560;DHT22;2803;47.916;8.074;2024-02-16T08:44:31;14.40;99.90
5560;DHT22;2803;47.916;8.074;2024-02-16T08:46:58;14.40;99.90
5560;DHT22;2803;47.916;8.074;2024-02-16T08:49:25;14.20;99.90
5560;DHT22;2803;47.916;8.074;2024-02-16T08:51:52;14.50;99.90
5560;DHT22;2803;47.916;8.074;2024-02-16T08:54:19;14.60;99.90
5560;DHT22;2803;47.916;8.074;2024-02-16T08:56:46;14.90;99.90
5560;DHT22;2803;47.916;8.074;2024-02-16T08:59:13;15.20;99.90
5560;DHT22;2803;47.916;8.074;2024-02-16T09:01:43;15.60;99.90
5560;DHT22;2803;47.916;8.074;2024-02-16T09:04:10;15.40;99.90
5560;DHT22;2803;47.916;8.074;2024-02-16T09:06:36;15.70;99.90
5560;DHT22;2803;47.916;8.074;2024-02-16T09:09:04;16.20;99.90
5560;DHT22;2803;47.916;8.074;2024-02-16T09:11:32;16.80;99.90
5560;DHT22;2803;47.916;8.074;2024-02-16T09:14:00;16.90;99.90
5560;DHT22;2803;47.916;8.074;2024-02-16T09:16:27;16.90;99.90
5560;DHT22;2803;47.916;8.074;2024-02-16T09:18:53;17.20;99.90
5560;DHT22;2803;47.916;8.074;2024-02-16T09:21:20;17.30;99.90
5560;DHT22;2803;47.916;8.074;2024-02-16T09:23:49;17.40;99.90
5560;DHT22;2803;47.916;8.074;2024-02-16T09:26:16;17.60;99.90
5560;DHT22;2803;47.916;8.074;2024-02-16T09:28:42;17.90;99.90
5560;DHT22;2803;47.916;8.074;2024-02-16T09:31:14;18.40;99.90
5560;DHT22;2803;47.916;8.074;2024-02-16T09:33:40;18.50;99.90
5560;DHT22;2803;47.916;8.074;2024-02-16T09:36:07;18.40;99.90
5560;DHT22;2803;47.916;8.074;2024-02-16T09:38:34;18.60;99.90
5560;DHT22;2803;47.916;8.074;2024-02-16T09:41:01;18.40;99.90
5560;DHT22;2803;47.916;8.074;2024-02-16T09:43:29;18.70;99.90
5560;DHT22;2803;47.916;8.074;2024-02-16T09:45:57;18.70;99.90
5560;DHT22;2803;47.916;8.074;2024-02-16T09:48:27;19.20;99.90
5560;DHT22;2803;47.916;8.074;2024-02-16T09:50:55;18.80;99.90
5560;DHT22;2803;47.916;8.074;2024-02-16T09:53:25;18.90;99.90
5560;DHT22;2803;47.916;8.074;2024-02-16T09:55:52;19.00;99.90
5560;DHT22;2803;47.916;8.074;2024-02-16T09:58:20;18.90;99.90
5560;DHT22;2803;47.916;8.074;2024-02-16T10:00:49;18.90;99.90
5560;DHT22;2803;47.916;8.074;2024-02-16T10:03:32;18.90;99.90
5560;DHT22;2803;47.916;8.074;2024-02-16T10:06:07;19.10;99.90
5560;DHT22;2803;47.916;8.074;2024-02-16T10:08:34;19.90;99.90
5560;DHT22;2803;47.916;8.074;2024-02-16T10:11:02;20.20;99.90
5560;DHT22;2803;47.916;8.074;2024-02-16T10:13:29;20.80;99.90
5560;DHT22;2803;47.916;8.074;2024-02-16T10:16:04;21.20;99.90
5560;DHT22;2803;47.916;8.074;2024-02-16T10:18:33;21.60;99.90
5560;DHT22;2803;47.916;8.074;2024-02-16T10:20:59;21.80;99.90
5560;DHT22;2803;47.916;8.074;2024-02-16T10:23:26;21.50;99.90
5560;DHT22;2803;47.916;8.074;2024-02-16T10:25:54;21.80;99.90
5560;DHT22;2803;47.916;8.074;2024-02-16T10:28:21;21.90;99.90
5560;DHT22;2803;47.916;8.074;2024-02-16T10:30:56;21.60;99.90
5560;DHT22;2803;47.916;8.074;2024-02-16T10:33:23;21.20;99.90
5560;DHT22;2803;47.916;8.074;2024-02-16T10:35:52;20.80;99.90
5560;DHT22;2803;47.916;8.074;2024-02-16T10:38:19;20.90;99.90
5560;DHT22;2803;47.916;8.074;2024-02-16T10:40:47;21.00;99.90
5560;DHT22;2803;47.916;8.074;2024-02-16T10:43:15;20.70;99.90
5560;DHT22;2803;47.916;8.074;2024-02-16T10:45:44;20.40;99.90
5560;DHT22;2803;47.916;8.074;2024-02-16T10:48:12;20.40;99.90
5560;DHT22;2803;47.916;8.074;2024-02-16T10:50:41;19.90;99.90
5560;DHT22;2803;47.916;8.074;2024-02-16T10:53:13;19.60;99.90
5560;DHT22;2803;47.916;8.074;2024-02-16T10:55:43;19.80;99.90
5560;DHT22;2803;47.916;8.074;2024-02-16T10:58:11;19.40;99.90
5560;DHT22;2803;47.916;8.074;2024-02-16T11:00:48;19.50;99.90
5560;DHT22;2803;47.916;8.074;2024-02-16T11:03:16;20.10;99.90
5560;DHT22;2803;47.916;8.074;2024-02-16T11:05:43;20.50;99.90
5560;DHT22;2803;47.916;8.074;2024-02-16T11:08:14;20.90;99.90
5560;DHT22;2803;47.916;8.074;2024-02-16T11:10:41;21.00;99.90
5560;DHT22;2803;47.916;8.074;2024-02-16T11:13:22;20.80;99.90
5560;DHT22;2803;47.916;8.074;2024-02-16T11:15:57;20.70;99.90
5560;DHT22;2803;47.916;8.074;2024-02-16T11:18:24;20.90;99.90
5560;DHT22;2803;47.916;8.074;2024-02-16T11:20:52;20.80;99.90
5560;DHT22;2803;47.916;8.074;2024-02-16T11:23:25;20.70;99.90
5560;DHT22;2803;47.916;8.074;2024-02-16T11:25:53;20.30;99.90
5560;DHT22;2803;47.916;8.074;2024-02-16T11:28:20;19.60;99.90
5560;DHT22;2803;47.916;8.074;2024-02-16T11:30:47;19.10;99.90
5560;DHT22;2803;47.916;8.074;2024-02-16T11:33:13;19.10;99.90
5560;DHT22;2803;47.916;8.074;2024-02-16T11:35:40;19.10;99.90
5560;DHT22;2803;47.916;8.074;2024-02-16T11:38:07;18.40;99.90
5560;DHT22;2803;47.916;8.074;2024-02-16T11:40:35;18.20;99.90
5560;DHT22;2803;47.916;8.074;2024-02-16T11:43:02;17.90;99.90
5560;DHT22;2803;47.916;8.074;2024-02-16T11:45:28;17.70;99.90
5560;DHT22;2803;47.916;8.074;2024-02-16T11:48:04;18.00;99.90
5560;DHT22;2803;47.916;8.074;2024-02-16T11:50:31;18.00;99.90
5560;DHT22;2803;47.916;8.074;2024-02-16T11:52:58;17.90;99.90
5560;DHT22;2803;47.916;8.074;2024-02-16T11:55:24;18.00;99.90
5560;DHT22;2803;47.916;8.074;2024-02-16T11:57:53;18.20;99.90
5560;DHT22;2803;47.916;8.074;2024-02-16T12:00:20;18.00;99.90
5560;DHT22;2803;47.916;8.074;2024-02-16T12:02:47;17.80;99.90
5560;DHT22;2803;47.916;8.074;2024-02-16T12:05:14;17.70;99.90
5560;DHT22;2803;47.916;8.074;2024-02-16T12:07:40;17.80;99.90
5560;DHT22;2803;47.916;8.074;2024-02-16T12:10:07;18.10;99.90
5560;DHT22;2803;47.916;8.074;2024-02-16T12:12:34;18.50;99.90
5560;DHT22;2803;47.916;8.074;2024-02-16T12:15:05;17.70;99.90
5560;DHT22;2803;47.916;8.074;2024-02-16T12:17:33;17.70;99.90
5560;DHT22;2803;47.916;8.074;2024-02-16T12:20:00;17.60;99.90
5560;DHT22;2803;47.916;8.074;2024-02-16T12:22:28;17.20;99.90
5560;DHT22;2803;47.916;8.074;2024-02-16T12:24:54;17.50;99.90
5560;DHT22;2803;47.916;8.074;2024-02-16T12:27:21;17.80;99.90
5560;DHT22;2803;47.916;8.074;2024-02-16T12:29:47;17.70;99.90
5560;DHT22;2803;47.916;8.074;2024-02-16T12:32:15;17.60;99.90
5560;DHT22;2803;47.916;8.074;2024-02-16T12:34:44;17.50;99.90
5560;DHT22;2803;47.916;8.074;2024-02-16T12:37:10;17.30;99.90
5560;DHT22;2803;47.916;8.074;2024-02-16T12:39:37;17.60;99.90
5560;DHT22;2803;47.916;8.074;2024-02-16T12:42:06;17.70;99.90
5560;DHT22;2803;47.916;8.074;2024-02-16T12:44:32;17.60;99.90
5560;DHT22;2803;47.916;8.074;2024-02-16T12:46:59;17.80;99.90
5560;DHT22;2803;47.916;8.074;2024-02-16T12:49:28;17.80;99.90
5560;DHT22;2803;47.916;8.074;2024-02-16T12:51:55;18.10;99.90
5560;DHT22;2803;47.916;8.074;2024-02-16T12:54:21;18.20;99.90
5560;DHT22;2803;47.916;8.074;2024-02-16T12:56:51;17.80;99.90
5560;DHT22;2803;47.916;8.074;2024-02-16T12:59:20;17.90;99.90
5560;DHT22;2803;47.916;8.074;2024-02-16T13:01:46;18.20;99.90
5560;DHT22;2803;47.916;8.074;2024-02-16T13:04:13;18.40;99.90
5560;DHT22;2803;47.916;8.074;2024-02-16T13:06:47;18.40;99.90
5560;DHT22;2803;47.916;8.074;2024-02-16T13:09:14;18.20;99.90
5560;DHT22;2803;47.916;8.074;2024-02-16T13:11:41;18.30;99.90
5560;DHT22;2803;47.916;8.074;2024-02-16T13:14:07;18.20;99.90
5560;DHT22;2803;47.916;8.074;2024-02-16T13:16:34;18.10;99.90
5560;DHT22;2803;47.916;8.074;2024-02-16T13:19:00;18.00;99.90
5560;DHT22;2803;47.916;8.074;2024-02-16T13:21:31;17.60;99.90
5560;DHT22;2803;47.916;8.074;2024-02-16T13:23:59;17.40;99.90
5560;DHT22;2803;47.916;8.074;2024-02-16T13:26:25;17.10;99.90
5560;DHT22;2803;47.916;8.074;2024-02-16T13:28:52;17.30;99.90
5560;DHT22;2803;47.916;8.074;2024-02-16T13:31:20;17.20;99.90
5560;DHT22;2803;47.916;8.074;2024-02-16T13:33:46;17.00;99.90
5560;DHT22;2803;47.916;8.074;2024-02-16T13:36:13;17.10;99.90
5560;DHT22;2803;47.916;8.074;2024-02-16T13:38:40;17.10;99.90
5560;DHT22;2803;47.916;8.074;2024-02-16T13:41:07;17.20;99.90
5560;DHT22;2803;47.916;8.074;2024-02-16T13:43:35;16.90;99.90
5560;DHT22;2803;47.916;8.074;2024-02-16T13:46:02;16.60;99.90
5560;DHT22;2803;47.916;8.074;2024-02-16T13:48:29;17.00;99.90
5560;DHT22;2803;47.916;8.074;2024-02-16T13:50:56;17.30;99.90
5560;DHT22;2803;47.916;8.074;2024-02-16T13:53:24;17.40;99.90
5560;DHT22;2803;47.916;8.074;2024-02-16T13:55:51;17.30;99.90
5560;DHT22;2803;47.916;8.074;2024-02-16T13:58:19;17.30;99.90
5560;DHT22;2803;47.916;8.074;2024-02-16T14:00:45;17.10;99.90
5560;DHT22;2803;47.916;8.074;2024-02-16T14:03:14;17.10;99.90
5560;DHT22;2803;47.916;8.074;2024-02-16T14:05:42;17.60;99.90
5560;DHT22;2803;47.916;8.074;2024-02-16T14:08:10;17.90;99.90
5560;DHT22;2803;47.916;8.074;2024-02-16T14:10:38;18.10;99.90
5560;DHT22;2803;47.916;8.074;2024-02-16T14:13:04;17.80;99.90
5560;DHT22;2803;47.916;8.074;2024-02-16T14:15:32;17.70;99.90
5560;DHT22;2803;47.916;8.074;2024-02-16T14:18:00;17.20;99.90
5560;DHT22;2803;47.916;8.074;2024-02-16T14:20:27;17.00;99.90
5560;DHT22;2803;47.916;8.074;2024-02-16T14:22:53;17.10;99.90
5560;DHT22;2803;47.916;8.074;2024-02-16T14:25:20;17.00;99.90
5560;DHT22;2803;47.916;8.074;2024-02-16T14:27:47;17.30;99.90
5560;DHT22;2803;47.916;8.074;2024-02-16T14:30:13;17.30;99.90
5560;DHT22;2803;47.916;8.074;2024-02-16T14:32:41;17.40;99.90
5560;DHT22;2803;47.916;8.074;2024-02-16T14:35:08;17.60;99.90
5560;DHT22;2803;47.916;8.074;2024-02-16T14:37:36;17.70;99.90
5560;DHT22;2803;47.916;8.074;2024-02-16T14:40:04;17.80;99.90
5560;DHT22;2803;47.916;8.074;2024-02-16T14:42:35;17.80;99.90
5560;DHT22;2803;47.916;8.074;2024-02-16T14:45:02;17.50;99.90
5560;DHT22;2803;47.916;8.074;2024-02-16T14:47:29;17.20;99.90
5560;DHT22;2803;47.916;8.074;2024-02-16T14:49:57;17.40;99.90
5560;DHT22;2803;47.916;8.074;2024-02-16T14:52:24;17.50;99.90
5560;DHT22;2803;47.916;8.074;2024-02-16T14:54:51;17.50;99.90
5560;DHT22;2803;47.916;8.074;2024-02-16T14:57:17;17.50;99.90
5560;DHT22;2803;47.916;8.074;2024-02-16T14:59:45;17.30;99.90
5560;DHT22;2803;47.916;8.074;2024-02-16T15:02:12;17.30;99.90
5560;DHT22;2803;47.916;8.074;2024-02-16T15:04:41;17.00;99.90
5560;DHT22;2803;47.916;8.074;2024-02-16T15:07:09;16.80;99.90
5560;DHT22;2803;47.916;8.074;2024-02-16T15:09:36;16.90;99.90
5560;DHT22;2803;47.916;8.074;2024-02-16T15:12:06;16.50;99.90
5560;DHT22;2803;47.916;8.074;2024-02-16T15:14:33;16.50;99.90
5560;DHT22;2803;47.916;8.074;2024-02-16T15:17:00;16.60;99.90
5560;DHT22;2803;47.916;8.074;2024-02-16T15:19:28;16.40;99.90
5560;DHT22;2803;47.916;8.074;2024-02-16T15:21:54;16.40;99.90
5560;DHT22;2803;47.916;8.074;2024-02-16T15:24:22;16.40;99.90
5560;DHT22;2803;47.916;8.074;2024-02-16T15:26:49;16.10;99.90
5560;DHT22;2803;47.916;8.074;2024-02-16T15:29:16;16.00;99.90
5560;DHT22;2803;47.916;8.074;2024-02-16T15:31:42;16.30;99.90
5560;DHT22;2803;47.916;8.074;2024-02-16T15:34:09;16.20;99.90
5560;DHT22;2803;47.916;8.074;2024-02-16T15:36:36;15.90;99.90
5560;DHT22;2803;47.916;8.074;2024-02-16T15:39:05;16.20;99.90
5560;DHT22;2803;47.916;8.074;2024-02-16T15:41:35;16.30;99.90
5560;DHT22;2803;47.916;8.074;2024-02-16T15:44:02;16.40;99.90
5560;DHT22;2803;47.916;8.074;2024-02-16T15:46:29;16.30;99.90
5560;DHT22;2803;47.916;8.074;2024-02-16T15:48:56;16.50;99.90
5560;DHT22;2803;47.916;8.074;2024-02-16T15:51:23;16.70;99.90
5560;DHT22;2803;47.916;8.074;2024-02-16T15:53:49;16.60;99.90
5560;DHT22;2803;47.916;8.074;2024-02-16T15:56:16;16.70;99.90
5560;DHT22;2803;47.916;8.074;2024-02-16T15:58:44;16.80;99.90
5560;DHT22;2803;47.916;8.074;2024-02-16T16:01:11;16.60;99.90
5560;DHT22;2803;47.916;8.074;2024-02-16T16:03:37;16.50;99.90